Currently 53°F in Riverside (Presidential Park), California, USA
53°F
55°F / 52°F
calm
0.00"
Tuesday, October 26, 2021 4:19 AM PDT

Riverside (Presidential Park), California Weather Summary
Last 36 Hours

Temperature Winds Hourly Humidity Dewpoint
Time Report Norm Report Norm Max Gusts Precip. Rpt. Norm Rpt. Norm Pressure
1Tue 04:19 AM  52.8°F  59°F  calm  1 mph  1 mph  0.00"  91%  66%  50°F  47°F  30.01"
Tue 04:00 AM  52.7°F  59°F  calm  1 mph  4 mph  0.00"  91%  66%  50°F  47°F  30.01"
3Tue 03:27 AM  51.8°F  60°F  calm  1 mph  none  ----  91%  65%  49°F  48°F  30.01"
Tue 03:00 AM  52.6°F  60°F  2 mph SE  1 mph  5 mph  0.00"  91%  65%  50°F  48°F  30.00"
Tue 02:00 AM  53.0°F  61°F  calm  1 mph  none  0.00"  91%  64%  50°F  48°F  30.00"
Tue 01:00 AM  53.2°F  61°F  calm  1 mph  none  0.00"  90%  63%  50°F  48°F  29.98"
2Tue 12:00 AM  55.1°F  63°F  calm  1 mph  3 mph  0.00"  89%  61%  52°F  49°F  29.97"
Mon 11:00 PM  55.6°F  64°F  calm  1 mph  3 mph  0.00"  89%  60%  52°F  49°F  29.95"
Mon 10:00 PM  56.5°F  65°F  calm  2 mph  6 mph  0.00"  88%  57%  53°F  49°F  29.93"
Mon 09:00 PM  56.1°F  67°F  3 mph W  2 mph  6 mph  0.00"  89%  54%  53°F  49°F  29.92"
Mon 08:00 PM  55.9°F  70°F  2 mph W  2 mph  9 mph  0.00"  89%  50%  53°F  50°F  29.90"
Mon 07:00 PM  55.9°F  72°F  4 mph SW  3 mph  10 mph  0.00"  90%  45%  53°F  49°F  29.88"
Mon 06:00 PM  55.1°F  76°F  4 mph SW  4 mph  6 mph  0.00"  91%  39%  53°F  49°F  29.85"
Mon 05:00 PM  56.3°F  79°F  4 mph S  6 mph  22 mph  0.00"  92%  34%  54°F  47°F  29.85"
Mon 04:00 PM  59.4°F  80°F  12 mph SW  6 mph  30 mph  0.00"  88%  31%  56°F  46°F  29.83"
Mon 03:00 PM  64.2°F  80°F  7 mph SE  5 mph  19 mph  0.00"  73%  31%  55°F  45°F  29.80"
Mon 02:00 PM  65.0°F  79°F  7 mph SE  5 mph  16 mph  0.00"  69%  32%  54°F  46°F  29.81"
Mon 01:00 PM  64.2°F  78°F  2 mph SE  4 mph  12 mph  0.00"  70%  35%  54°F  47°F  29.85"
Mon 12:00 PM  61.9°F  75°F  2 mph NE  3 mph  10 mph  0.00"  80%  40%  55°F  48°F  29.89"
Mon 11:00 AM  61.5°F  71°F  5 mph W  3 mph  9 mph  0.00"  78%  48%  54°F  50°F  29.91"
Mon 10:00 AM  61.1°F  68°F  6 mph W  2 mph  9 mph  0.00"  78%  55%  54°F  51°F  29.90"
Mon 09:00 AM  59.2°F  62°F  3 mph SE  1 mph  5 mph  0.00"  85%  65%  55°F  50°F  29.91"
Mon 08:00 AM  58.3°F  58°F  calm  1 mph  5 mph  0.00"  86%  69%  54°F  48°F  29.91"
Mon 07:00 AM  58.0°F  58°F  3 mph W  1 mph  4 mph  0.00"  85%  69%  53°F  47°F  29.91"
Mon 06:00 AM  57.9°F  58°F  1 mph W  1 mph  5 mph  0.00"  84%  68%  53°F  47°F  29.90"
Mon 05:00 AM  56.8°F  59°F  1 mph SE  1 mph  3 mph  0.00"  84%  68%  52°F  48°F  29.91"
Mon 04:00 AM  56.4°F  60°F  calm  1 mph  3 mph  0.00"  83%  66%  51°F  48°F  29.92"
Mon 03:00 AM  56.5°F  60°F  1 mph SE  1 mph  2 mph  0.00"  82%  66%  51°F  48°F  29.92"
Mon 02:00 AM  57.6°F  61°F  calm  1 mph  2 mph  0.00"  79%  65%  51°F  48°F  29.92"
Mon 01:00 AM  58.4°F  62°F  1 mph SE  1 mph  3 mph  0.00"  77%  63%  51°F  49°F  29.92"
Mon 12:00 AM  59.4°F  63°F  calm  1 mph  2 mph  0.00"  75%  62%  51°F  49°F  29.93"
Sun 11:00 PM  61.0°F  64°F  1 mph SE  1 mph  4 mph  0.00"  74%  60%  52°F  49°F  29.92"
Sun 10:00 PM  62.3°F  65°F  2 mph S  2 mph  6 mph  0.00"  71%  58%  53°F  49°F  29.92"
Sun 09:00 PM  63.3°F  67°F  calm  2 mph  9 mph  0.00"  70%  54%  53°F  50°F  29.91"
Sun 08:00 PM  65.1°F  70°F  5 mph W  2 mph  10 mph  0.00"  67%  50%  53°F  50°F  29.89"
Sun 07:00 PM  67.3°F  73°F  3 mph W  3 mph  11 mph  0.00"  63%  45%  54°F  50°F  29.87"
Sun 06:00 PM  70.2°F  76°F  6 mph SW  5 mph  9 mph  0.00"  54%  39%  52°F  49°F  29.85"
Sun 05:00 PM  72.1°F  80°F  4 mph SW  6 mph  9 mph  0.00"  52%  34%  53°F  47°F  29.86"

  1. Current weather data. No green row appears if the current weather data is also the high or low for the current day.
  2. High temperature for the current day.
  3. Low temperature for the current day.

The Riverside (Presidential Park), California weather pages are a service of WeatherCurrents.
Copyright ©2021  WeatherCurrents. All rights reserved. - Submit questions and comments - Privacy Policy

This page automatically refreshes every 10 minutes.